createdAt,value
2018-09-30T00:02:03.627Z,14.20
2018-09-30T00:04:31.128Z,14.30
2018-09-30T00:06:58.562Z,14.30
2018-09-30T00:09:29.902Z,14.20
2018-09-30T00:11:58.492Z,14.20
2018-09-30T00:14:26.157Z,14.20
2018-09-30T00:16:53.585Z,14.10
2018-09-30T00:19:21.028Z,14.10
2018-09-30T00:21:48.450Z,14.10
2018-09-30T00:24:21.560Z,14.10
2018-09-30T00:26:54.814Z,14.10
2018-09-30T00:29:22.531Z,14.00
2018-09-30T00:31:50.058Z,14.00
2018-09-30T00:34:23.162Z,13.90
2018-09-30T00:36:50.615Z,13.90
2018-09-30T00:39:18.057Z,13.90
2018-09-30T00:41:45.462Z,13.90
2018-09-30T00:44:12.911Z,13.80
2018-09-30T00:46:40.367Z,13.80
2018-09-30T00:49:07.808Z,13.80
2018-09-30T00:51:35.231Z,13.80
2018-09-30T00:54:03.021Z,13.80
2018-09-30T00:56:30.467Z,13.70
2018-09-30T00:58:57.861Z,13.70
2018-09-30T01:01:25.352Z,13.70
2018-09-30T01:03:52.747Z,13.60
2018-09-30T01:06:20.517Z,13.70
2018-09-30T01:08:47.977Z,13.60
2018-09-30T01:11:15.423Z,13.60
2018-09-30T01:13:42.851Z,13.60
2018-09-30T01:16:10.649Z,13.60
2018-09-30T01:18:38.018Z,13.50
2018-09-30T01:21:05.995Z,13.50
2018-09-30T01:23:33.597Z,13.50
2018-09-30T01:26:01.599Z,13.50
2018-09-30T01:28:28.995Z,13.50
2018-09-30T01:30:56.408Z,13.50
2018-09-30T01:33:23.799Z,13.50
2018-09-30T01:35:51.227Z,13.50
2018-09-30T01:38:18.655Z,13.40
2018-09-30T01:40:46.112Z,13.40
2018-09-30T01:43:13.555Z,13.40
2018-09-30T01:45:40.992Z,13.40
2018-09-30T01:48:08.442Z,13.40
2018-09-30T01:50:35.874Z,13.40
2018-09-30T01:53:03.270Z,13.40
2018-09-30T01:55:30.713Z,13.40
2018-09-30T01:57:58.136Z,13.40
2018-09-30T02:00:25.534Z,13.40
2018-09-30T02:02:52.943Z,13.40
2018-09-30T02:05:20.335Z,13.40
2018-09-30T02:07:48.418Z,13.40
2018-09-30T02:10:16.443Z,13.40
2018-09-30T02:12:43.883Z,13.30
2018-09-30T02:15:11.318Z,13.30
2018-09-30T02:17:38.773Z,13.30
2018-09-30T02:20:06.263Z,13.30
2018-09-30T02:22:33.694Z,13.30
2018-09-30T02:25:01.129Z,13.20
2018-09-30T02:27:28.597Z,13.20
2018-09-30T02:29:56.048Z,13.20
2018-09-30T02:32:23.511Z,13.20
2018-09-30T02:34:51.335Z,13.10
2018-09-30T02:37:18.733Z,13.10
2018-09-30T02:39:46.163Z,13.10
2018-09-30T02:42:13.892Z,13.10
2018-09-30T02:44:41.574Z,13.00
2018-09-30T02:47:09.177Z,13.00
2018-09-30T02:49:36.711Z,13.00
2018-09-30T02:52:04.166Z,13.00
2018-09-30T02:54:31.632Z,13.00
2018-09-30T02:56:59.048Z,12.90
2018-09-30T02:59:26.470Z,12.90
2018-09-30T03:01:53.866Z,12.90
2018-09-30T03:04:21.262Z,12.90
2018-09-30T03:06:54.311Z,13.00
2018-09-30T03:09:21.770Z,12.80
2018-09-30T03:11:49.200Z,12.80
2018-09-30T03:14:16.964Z,12.80
2018-09-30T03:16:45.104Z,12.80
2018-09-30T03:19:12.991Z,12.80
2018-09-30T03:21:40.425Z,12.80
2018-09-30T03:24:08.500Z,12.80
2018-09-30T03:26:35.956Z,12.70
2018-09-30T03:29:03.378Z,12.70
2018-09-30T03:31:30.800Z,12.70
2018-09-30T03:33:58.241Z,12.70
2018-09-30T03:36:25.891Z,12.70
2018-09-30T03:38:53.280Z,12.70
2018-09-30T03:41:20.741Z,12.70
2018-09-30T03:43:48.131Z,12.70
2018-09-30T03:46:15.541Z,12.70
2018-09-30T03:48:42.937Z,12.90
2018-09-30T03:51:10.381Z,12.60
2018-09-30T03:53:37.837Z,12.60
2018-09-30T03:56:05.333Z,12.60
2018-09-30T03:58:32.751Z,12.50
2018-09-30T04:01:00.197Z,12.50
2018-09-30T04:03:27.651Z,12.50
2018-09-30T04:05:55.087Z,12.50
2018-09-30T04:08:22.487Z,12.50
2018-09-30T04:10:49.896Z,12.50
2018-09-30T04:13:17.286Z,12.40
2018-09-30T04:15:44.684Z,12.40
2018-09-30T04:18:12.165Z,12.40
2018-09-30T04:20:39.609Z,12.40
2018-09-30T04:23:07.035Z,12.40
2018-09-30T04:25:34.438Z,12.40
2018-09-30T04:28:01.867Z,12.40
2018-09-30T04:30:29.367Z,12.40
2018-09-30T04:32:56.817Z,12.40
2018-09-30T04:35:24.195Z,12.40
2018-09-30T04:37:51.648Z,12.40
2018-09-30T04:40:19.071Z,12.40
2018-09-30T04:42:46.494Z,12.40
2018-09-30T04:45:13.908Z,12.40
2018-09-30T04:47:41.337Z,12.40
2018-09-30T04:50:08.803Z,12.40
2018-09-30T04:52:36.136Z,12.40
2018-09-30T04:55:03.644Z,12.30
2018-09-30T04:57:31.092Z,12.40
2018-09-30T04:59:58.638Z,12.30
2018-09-30T05:02:26.035Z,12.30
2018-09-30T05:04:53.442Z,12.30
2018-09-30T05:07:20.870Z,12.30
2018-09-30T05:09:48.295Z,12.30
2018-09-30T05:12:15.724Z,12.30
2018-09-30T05:14:43.218Z,12.30
2018-09-30T05:17:10.623Z,12.30
2018-09-30T05:19:38.048Z,12.30
2018-09-30T05:22:05.884Z,12.20
2018-09-30T05:24:33.304Z,12.20
2018-09-30T05:27:00.716Z,12.20
2018-09-30T05:29:28.144Z,12.10
2018-09-30T05:31:55.550Z,12.10
2018-09-30T05:34:22.966Z,12.10
2018-09-30T05:36:50.376Z,12.00
2018-09-30T05:39:17.778Z,12.30
2018-09-30T05:41:51.974Z,12.10
2018-09-30T05:44:19.412Z,12.10
2018-09-30T05:46:46.806Z,12.10
2018-09-30T05:49:14.295Z,12.10
2018-09-30T05:51:41.654Z,12.10
2018-09-30T05:54:09.057Z,11.30
2018-09-30T05:56:36.469Z,12.20
2018-09-30T05:59:03.907Z,12.20
2018-09-30T06:01:31.282Z,12.30
2018-09-30T06:03:58.718Z,12.30
2018-09-30T06:06:26.181Z,12.30
2018-09-30T06:08:53.613Z,12.30
2018-09-30T06:11:21.022Z,12.30
2018-09-30T06:13:48.538Z,12.30
2018-09-30T06:16:15.942Z,12.40
2018-09-30T06:18:43.352Z,12.40
2018-09-30T06:21:10.757Z,12.40
2018-09-30T06:23:38.163Z,12.50
2018-09-30T06:26:05.658Z,12.40
2018-09-30T06:28:33.102Z,12.50
2018-09-30T06:31:00.515Z,12.50
2018-09-30T06:33:27.948Z,12.60
2018-09-30T06:35:55.377Z,12.60
2018-09-30T06:38:22.833Z,12.70
2018-09-30T06:40:50.289Z,12.80
2018-09-30T06:43:17.681Z,12.80
2018-09-30T06:45:45.085Z,12.80
2018-09-30T06:48:12.481Z,12.90
2018-09-30T06:50:39.870Z,13.00
2018-09-30T06:53:07.323Z,13.00
2018-09-30T06:55:34.775Z,13.00
2018-09-30T06:58:02.243Z,13.10
2018-09-30T07:00:29.617Z,13.10
2018-09-30T07:02:57.038Z,13.20
2018-09-30T07:05:24.546Z,13.20
2018-09-30T07:07:52.115Z,13.30
2018-09-30T07:10:19.571Z,13.30
2018-09-30T07:12:46.984Z,13.40
2018-09-30T07:15:14.401Z,13.50
2018-09-30T07:17:41.859Z,13.50
2018-09-30T07:20:09.294Z,13.60
2018-09-30T07:22:36.759Z,13.70
2018-09-30T07:25:04.234Z,13.80
2018-09-30T07:27:31.669Z,13.90
2018-09-30T07:29:59.169Z,13.90
2018-09-30T07:32:26.586Z,14.10
2018-09-30T07:34:53.996Z,14.20
2018-09-30T07:37:21.497Z,14.30
2018-09-30T07:39:48.903Z,14.40
2018-09-30T07:42:16.353Z,14.50
2018-09-30T07:44:43.815Z,14.60
2018-09-30T07:47:11.267Z,14.80
2018-09-30T07:49:38.693Z,14.90
2018-09-30T07:52:06.143Z,15.20
2018-09-30T07:54:33.573Z,15.40
2018-09-30T07:57:00.975Z,15.90
2018-09-30T07:59:28.478Z,16.30
2018-09-30T08:01:55.871Z,16.70
2018-09-30T08:04:23.314Z,17.30
2018-09-30T08:06:50.715Z,17.90
2018-09-30T08:09:18.110Z,18.50
2018-09-30T08:11:45.493Z,19.10
2018-09-30T08:14:12.936Z,19.70
2018-09-30T08:16:40.368Z,20.30
2018-09-30T08:19:07.931Z,21.00
2018-09-30T08:21:35.384Z,21.60
2018-09-30T08:24:02.903Z,22.40
2018-09-30T08:26:30.279Z,23.00
2018-09-30T08:28:57.705Z,23.80
2018-09-30T08:31:25.157Z,24.60
2018-09-30T08:33:52.573Z,25.40
2018-09-30T08:36:19.984Z,26.20
2018-09-30T08:38:47.354Z,27.00
2018-09-30T08:41:14.802Z,27.80
2018-09-30T08:43:42.936Z,28.50
2018-09-30T08:46:10.413Z,29.20
2018-09-30T08:48:37.835Z,30.00
2018-09-30T08:51:05.359Z,30.70
2018-09-30T08:53:32.832Z,31.40
2018-09-30T08:56:00.291Z,32.10
2018-09-30T08:58:28.562Z,32.70
2018-09-30T09:00:56.150Z,33.40
2018-09-30T09:03:24.087Z,34.00
2018-09-30T09:05:51.491Z,34.60
2018-09-30T09:08:18.951Z,35.20
2018-09-30T09:10:46.457Z,35.70
2018-09-30T09:13:13.912Z,36.40
2018-09-30T09:15:41.384Z,36.90
2018-09-30T09:18:08.823Z,37.40
2018-09-30T09:20:36.244Z,38.00
2018-09-30T09:23:03.706Z,38.50
2018-09-30T09:25:31.128Z,39.10
2018-09-30T09:27:58.595Z,39.50
2018-09-30T09:30:25.972Z,39.90
2018-09-30T09:32:53.472Z,40.50
2018-09-30T09:35:20.872Z,40.90
2018-09-30T09:37:48.297Z,41.30
2018-09-30T09:40:15.752Z,41.70
2018-09-30T09:42:43.181Z,42.00
2018-09-30T09:45:10.636Z,42.40
2018-09-30T09:47:38.089Z,42.70
2018-09-30T09:50:06.361Z,43.00
2018-09-30T09:52:33.886Z,43.40
2018-09-30T09:55:01.316Z,43.60
2018-09-30T09:57:28.770Z,43.90
2018-09-30T09:59:56.234Z,44.10
2018-09-30T10:02:23.741Z,44.30
2018-09-30T10:04:51.142Z,44.50
2018-09-30T10:07:18.547Z,44.60
2018-09-30T10:09:45.994Z,44.80
2018-09-30T10:12:13.449Z,45.00
2018-09-30T10:14:40.887Z,45.20
2018-09-30T10:17:08.353Z,45.30
2018-09-30T10:19:35.799Z,45.50
2018-09-30T10:22:03.284Z,45.70
2018-09-30T10:24:30.703Z,45.80
2018-09-30T10:26:58.139Z,46.00
2018-09-30T10:29:25.830Z,46.20
2018-09-30T10:31:53.233Z,46.40
2018-09-30T10:34:20.707Z,46.50
2018-09-30T10:36:48.219Z,46.60
2018-09-30T10:39:15.874Z,46.70
2018-09-30T10:41:43.157Z,46.80
2018-09-30T10:44:10.590Z,46.90
2018-09-30T10:46:38.078Z,46.90
2018-09-30T10:49:05.821Z,47.00
2018-09-30T10:51:33.271Z,47.10
2018-09-30T10:54:00.709Z,47.10
2018-09-30T10:56:28.182Z,47.20
2018-09-30T10:58:55.879Z,47.20
2018-09-30T11:01:23.449Z,47.20
2018-09-30T11:03:50.881Z,47.10
2018-09-30T11:06:18.327Z,47.10
2018-09-30T11:08:45.810Z,47.10
2018-09-30T11:11:13.324Z,47.10
2018-09-30T11:13:40.769Z,47.10
2018-09-30T11:16:08.220Z,47.10
2018-09-30T11:18:35.653Z,47.10
2018-09-30T11:21:03.120Z,47.10
2018-09-30T11:23:30.548Z,47.00
2018-09-30T11:25:58.116Z,47.00
2018-09-30T11:28:25.536Z,47.00
2018-09-30T11:30:53.108Z,47.00
2018-09-30T11:33:20.524Z,46.90
2018-09-30T11:35:47.934Z,47.00
2018-09-30T11:38:15.413Z,47.00
2018-09-30T11:40:42.864Z,47.00
2018-09-30T11:43:10.303Z,46.90
2018-09-30T11:45:37.751Z,46.90
2018-09-30T11:48:05.192Z,46.90
2018-09-30T11:50:32.622Z,46.80
2018-09-30T11:53:00.097Z,46.80
2018-09-30T11:55:27.595Z,46.80
2018-09-30T11:57:55.026Z,46.80
2018-09-30T12:00:22.454Z,46.80
2018-09-30T12:02:49.872Z,46.80
2018-09-30T12:05:17.290Z,46.80
2018-09-30T12:07:44.714Z,46.80
2018-09-30T12:10:12.195Z,46.80
2018-09-30T12:12:39.646Z,46.80
2018-09-30T12:15:07.103Z,46.80
2018-09-30T12:17:34.539Z,46.80
2018-09-30T12:20:02.003Z,46.60
2018-09-30T12:22:29.425Z,46.70
2018-09-30T12:24:56.856Z,46.60
2018-09-30T12:27:24.247Z,46.50
2018-09-30T12:29:51.679Z,46.50
2018-09-30T12:32:19.077Z,46.40
2018-09-30T12:34:46.533Z,46.40
2018-09-30T12:37:14.043Z,46.30
2018-09-30T12:39:41.445Z,46.30
2018-09-30T12:42:08.891Z,46.30
2018-09-30T12:44:36.345Z,46.30
2018-09-30T12:47:04.093Z,46.30
2018-09-30T12:49:31.539Z,46.20
2018-09-30T12:51:59.525Z,46.10
2018-09-30T12:54:26.983Z,46.10
2018-09-30T12:56:54.472Z,46.00
2018-09-30T12:59:21.956Z,45.90
2018-09-30T13:01:49.340Z,45.80
2018-09-30T13:04:16.769Z,45.70
2018-09-30T13:06:44.218Z,45.60
2018-09-30T13:09:11.682Z,45.50
2018-09-30T13:11:39.160Z,45.40
2018-09-30T13:14:07.039Z,45.20
2018-09-30T13:16:34.518Z,45.20
2018-09-30T13:19:01.941Z,45.10
2018-09-30T13:21:29.406Z,45.10
2018-09-30T13:23:56.863Z,45.00
2018-09-30T13:26:24.330Z,45.00
2018-09-30T13:28:51.771Z,44.90
2018-09-30T13:31:19.191Z,44.80
2018-09-30T13:33:46.619Z,44.70
2018-09-30T13:36:14.059Z,44.70
2018-09-30T13:38:41.498Z,44.50
2018-09-30T13:41:09.093Z,44.40
2018-09-30T13:43:36.394Z,44.30
2018-09-30T13:46:03.852Z,44.20
2018-09-30T13:48:31.258Z,44.00
2018-09-30T13:50:58.712Z,43.90
2018-09-30T13:53:26.186Z,43.80
2018-09-30T13:55:53.646Z,43.50
2018-09-30T13:58:21.162Z,43.40
2018-09-30T14:00:48.558Z,43.30
2018-09-30T14:03:15.990Z,43.20
2018-09-30T14:05:43.429Z,43.00
2018-09-30T14:08:10.846Z,42.80
2018-09-30T14:10:38.291Z,42.70
2018-09-30T14:13:05.762Z,42.60
2018-09-30T14:15:33.172Z,42.40
2018-09-30T14:18:00.586Z,42.30
2018-09-30T14:20:28.015Z,42.10
2018-09-30T14:22:55.500Z,41.60
2018-09-30T14:25:22.979Z,41.20
2018-09-30T14:27:50.386Z,40.60
2018-09-30T14:30:17.819Z,40.00
2018-09-30T14:32:45.291Z,39.20
2018-09-30T14:35:12.719Z,38.50
2018-09-30T14:37:40.182Z,37.70
2018-09-30T14:40:08.216Z,37.00
2018-09-30T14:42:35.661Z,36.30
2018-09-30T14:45:03.214Z,35.60
2018-09-30T14:47:30.674Z,35.00
2018-09-30T14:49:58.106Z,34.40
2018-09-30T14:52:25.560Z,33.80
2018-09-30T14:54:53.032Z,33.30
2018-09-30T14:57:20.457Z,32.80
2018-09-30T14:59:47.951Z,32.30
2018-09-30T15:02:15.329Z,31.90
2018-09-30T15:04:42.770Z,31.50
2018-09-30T15:07:10.215Z,31.20
2018-09-30T15:09:37.684Z,30.90
2018-09-30T15:12:05.146Z,30.60
2018-09-30T15:14:32.587Z,30.30
2018-09-30T15:17:00.021Z,30.10
2018-09-30T15:19:27.476Z,29.90
2018-09-30T15:21:54.880Z,29.70
2018-09-30T15:24:22.366Z,29.50
2018-09-30T15:26:49.791Z,29.40
2018-09-30T15:29:17.235Z,29.20
2018-09-30T15:31:44.661Z,29.00
2018-09-30T15:34:12.109Z,28.80
2018-09-30T15:36:39.592Z,28.70
2018-09-30T15:39:09.687Z,28.50
2018-09-30T15:41:37.425Z,28.30
2018-09-30T15:44:04.867Z,28.20
2018-09-30T15:46:32.274Z,28.00
2018-09-30T15:48:59.718Z,27.80
2018-09-30T15:51:27.123Z,27.70
2018-09-30T15:53:54.596Z,27.50
2018-09-30T15:56:22.048Z,27.40
2018-09-30T15:58:49.474Z,27.20
2018-09-30T16:01:16.896Z,27.10
2018-09-30T16:03:44.342Z,26.90
2018-09-30T16:06:11.771Z,26.80
2018-09-30T16:08:39.232Z,26.60
2018-09-30T16:11:06.741Z,26.50
2018-09-30T16:13:34.215Z,26.40
2018-09-30T16:16:01.709Z,26.20
2018-09-30T16:18:29.134Z,26.10
2018-09-30T16:20:56.581Z,26.00
2018-09-30T16:23:24.039Z,25.90
2018-09-30T16:25:51.475Z,25.80
2018-09-30T16:28:18.930Z,25.60
2018-09-30T16:30:46.418Z,25.50
2018-09-30T16:33:13.849Z,25.40
2018-09-30T16:35:41.530Z,25.30
2018-09-30T16:38:09.072Z,25.20
2018-09-30T16:40:36.541Z,25.10
2018-09-30T16:43:04.017Z,25.00
2018-09-30T16:45:31.449Z,24.90
2018-09-30T16:47:58.855Z,24.80
2018-09-30T16:50:26.327Z,24.70
2018-09-30T16:52:53.775Z,24.60
2018-09-30T16:55:21.254Z,24.50
2018-09-30T16:57:48.670Z,24.40
2018-09-30T17:00:16.087Z,24.30
2018-09-30T17:02:43.517Z,24.20
2018-09-30T17:05:10.939Z,24.10
2018-09-30T17:07:38.374Z,24.00
2018-09-30T17:10:05.833Z,23.90
2018-09-30T17:12:33.412Z,23.90
2018-09-30T17:15:00.811Z,23.70
2018-09-30T17:17:28.322Z,23.70
2018-09-30T17:19:55.762Z,23.60
2018-09-30T17:22:23.209Z,23.50
2018-09-30T17:24:50.640Z,23.40
2018-09-30T17:27:18.123Z,23.40
2018-09-30T17:29:45.542Z,23.30
2018-09-30T17:32:13.038Z,23.20
2018-09-30T17:34:40.483Z,23.10
2018-09-30T17:37:07.947Z,23.10
2018-09-30T17:39:35.360Z,23.00
2018-09-30T17:42:02.841Z,22.90
2018-09-30T17:44:30.312Z,22.90
2018-09-30T17:46:57.806Z,22.80
2018-09-30T17:49:25.244Z,22.70
2018-09-30T17:51:52.689Z,22.70
2018-09-30T17:54:20.130Z,22.60
2018-09-30T17:56:47.589Z,22.50
2018-09-30T17:59:15.089Z,22.50
2018-09-30T18:01:42.536Z,22.40
2018-09-30T18:04:10.060Z,22.40
2018-09-30T18:06:37.454Z,22.30
2018-09-30T18:09:07.506Z,22.30
2018-09-30T18:11:34.985Z,22.20
2018-09-30T18:14:02.510Z,22.10
2018-09-30T18:16:29.917Z,22.10
2018-09-30T18:18:57.392Z,22.10
2018-09-30T18:21:24.821Z,22.00
2018-09-30T18:23:52.390Z,21.90
2018-09-30T18:26:19.814Z,21.90
2018-09-30T18:28:47.287Z,21.80
2018-09-30T18:31:14.722Z,21.80
2018-09-30T18:33:42.144Z,21.70
2018-09-30T18:36:09.592Z,21.70
2018-09-30T18:38:37.040Z,21.60
2018-09-30T18:41:04.722Z,21.60
2018-09-30T18:43:32.186Z,21.50
2018-09-30T18:45:59.631Z,21.50
2018-09-30T18:48:27.102Z,21.50
2018-09-30T18:50:54.543Z,21.40
2018-09-30T18:53:22.043Z,21.40
2018-09-30T18:55:49.531Z,21.40
2018-09-30T18:58:16.981Z,21.30
2018-09-30T19:00:44.463Z,21.30
2018-09-30T19:03:11.961Z,21.30
2018-09-30T19:05:39.378Z,21.30
2018-09-30T19:08:06.840Z,21.30
2018-09-30T19:10:34.333Z,21.20
2018-09-30T19:13:01.810Z,21.20
2018-09-30T19:15:29.284Z,21.20
2018-09-30T19:17:56.738Z,21.20
2018-09-30T19:20:24.222Z,21.20
2018-09-30T19:22:51.627Z,21.20
2018-09-30T19:25:19.101Z,21.10
2018-09-30T19:27:46.925Z,21.10
2018-09-30T19:30:14.515Z,21.10
2018-09-30T19:32:41.860Z,21.00
2018-09-30T19:35:09.315Z,21.00
2018-09-30T19:37:36.740Z,21.00
2018-09-30T19:40:04.588Z,21.00
2018-09-30T19:42:32.096Z,20.90
2018-09-30T19:44:59.666Z,20.90
2018-09-30T19:47:27.414Z,20.90
2018-09-30T19:49:54.841Z,20.80
2018-09-30T19:52:22.303Z,20.80
2018-09-30T19:54:49.764Z,20.80
2018-09-30T19:57:17.200Z,20.70
2018-09-30T19:59:44.647Z,20.70
2018-09-30T20:02:12.178Z,20.70
2018-09-30T20:04:39.619Z,20.70
2018-09-30T20:07:07.306Z,20.60
2018-09-30T20:09:34.794Z,20.60
2018-09-30T20:12:02.231Z,20.50
2018-09-30T20:14:29.669Z,20.50
2018-09-30T20:16:57.180Z,20.50
2018-09-30T20:19:24.883Z,20.40
2018-09-30T20:21:52.329Z,20.40
2018-09-30T20:24:19.809Z,20.40
2018-09-30T20:26:47.385Z,20.30
2018-09-30T20:29:14.845Z,20.30
2018-09-30T20:31:42.275Z,20.30
2018-09-30T20:34:09.771Z,20.20
2018-09-30T20:36:37.194Z,20.20
2018-09-30T20:39:05.870Z,20.10
2018-09-30T20:41:33.267Z,20.10
2018-09-30T20:44:00.733Z,20.10
2018-09-30T20:46:28.182Z,20.00
2018-09-30T20:48:55.675Z,20.00
2018-09-30T20:51:23.104Z,20.00
2018-09-30T20:53:50.592Z,19.90
2018-09-30T20:56:18.047Z,19.90
2018-09-30T20:58:45.512Z,19.90
2018-09-30T21:01:12.940Z,19.90
2018-09-30T21:03:40.403Z,19.80
2018-09-30T21:06:13.034Z,19.80
2018-09-30T21:08:40.668Z,19.80
2018-09-30T21:11:08.114Z,19.80
2018-09-30T21:13:35.894Z,19.80
2018-09-30T21:16:03.349Z,19.80
2018-09-30T21:18:31.329Z,19.80
2018-09-30T21:20:59.259Z,19.80
2018-09-30T21:23:27.241Z,19.80
2018-09-30T21:25:54.996Z,19.80
2018-09-30T21:28:22.495Z,19.80
2018-09-30T21:30:50.091Z,19.80
2018-09-30T21:33:17.542Z,19.80
2018-09-30T21:35:44.962Z,19.90
2018-09-30T21:38:12.437Z,19.90
2018-09-30T21:40:39.890Z,19.90
2018-09-30T21:43:07.288Z,19.90
2018-09-30T21:45:34.744Z,19.90
2018-09-30T21:48:02.146Z,19.90
2018-09-30T21:50:29.564Z,19.90
2018-09-30T21:52:56.998Z,19.80
2018-09-30T21:55:24.450Z,19.80
2018-09-30T21:57:51.851Z,19.80
2018-09-30T22:00:24.854Z,19.70
2018-09-30T22:03:01.017Z,19.70
2018-09-30T22:05:28.476Z,19.60
2018-09-30T22:07:55.879Z,19.60
2018-09-30T22:10:23.492Z,19.60
2018-09-30T22:12:50.955Z,19.50
2018-09-30T22:15:18.392Z,19.60
2018-09-30T22:17:45.853Z,19.50
2018-09-30T22:20:13.337Z,19.60
2018-09-30T22:22:40.867Z,19.60
2018-09-30T22:25:08.429Z,19.60
2018-09-30T22:27:35.861Z,19.60
2018-09-30T22:30:03.844Z,19.60
2018-09-30T22:32:31.262Z,21.70
2018-09-30T22:34:58.672Z,19.60
2018-09-30T22:37:26.112Z,19.60
2018-09-30T22:39:53.615Z,19.60
2018-09-30T22:42:21.076Z,19.60
2018-09-30T22:44:48.484Z,19.60
2018-09-30T22:47:15.910Z,19.60
2018-09-30T22:49:43.393Z,19.60
2018-09-30T22:52:11.051Z,19.60
2018-09-30T22:54:38.488Z,19.60
2018-09-30T22:57:06.383Z,19.70
2018-09-30T22:59:33.844Z,19.70
2018-09-30T23:02:01.330Z,19.70
2018-09-30T23:04:28.787Z,19.60
2018-09-30T23:06:56.213Z,19.70
2018-09-30T23:09:23.643Z,19.70
2018-09-30T23:11:51.040Z,19.70
2018-09-30T23:14:18.474Z,19.70
2018-09-30T23:16:45.931Z,19.70
2018-09-30T23:19:13.393Z,19.70
2018-09-30T23:21:40.818Z,19.70
2018-09-30T23:24:08.272Z,19.70
2018-09-30T23:26:35.703Z,19.70
2018-09-30T23:29:03.154Z,19.70
2018-09-30T23:31:30.565Z,19.70
2018-09-30T23:33:58.006Z,19.70
2018-09-30T23:36:25.460Z,19.70
2018-09-30T23:38:52.864Z,19.70
2018-09-30T23:41:20.266Z,19.70
2018-09-30T23:43:47.694Z,19.70
2018-09-30T23:46:15.086Z,19.80
2018-09-30T23:48:42.515Z,19.70
2018-09-30T23:51:10.060Z,19.80
2018-09-30T23:53:37.465Z,19.70
2018-09-30T23:56:04.963Z,19.80
2018-09-30T23:58:32.369Z,19.80
